Time;durP1;ratioP1;P1;durP2;ratioP2;P2;SDS_P1;SDS_P2;PMS_P1;PMS_P2;Temp;Humidity;BMP_temperature;BMP_pressure;BME280_temperature;BME280_humidity;BME280_pressure;Samples;Min_cycle;Max_cycle;Signal;HPM_P1;HPM_P2
2022/10/23 00:00:57;;;;;;;7.40;3.90;;;;;;;9.59;100.00;95953.34;5021960;28;24515;-68
2022/10/23 00:03:25;;;;;;;7.15;3.88;;;;;;;9.61;100.00;95943.78;5026320;28;24455;-68
2022/10/23 00:05:51;;;;;;;6.43;3.95;;;;;;;9.51;100.00;95943.44;5027202;28;24458;-67
2022/10/23 00:08:18;;;;;;;6.22;3.95;;;;;;;9.44;100.00;95942.13;5028620;28;24530;-68
2022/10/23 00:10:44;;;;;;;7.28;4.07;;;;;;;9.36;100.00;95939.94;5024132;28;24458;-69
2022/10/23 00:13:11;;;;;;;7.00;3.93;;;;;;;9.22;100.00;95945.03;5021640;28;24455;-68
2022/10/23 00:15:37;;;;;;;10.27;3.73;;;;;;;9.13;100.00;95948.13;5016302;28;24459;-68
2022/10/23 00:18:04;;;;;;;6.00;2.80;;;;;;;9.24;100.00;95952.72;5021221;28;24471;-68
2022/10/23 00:20:32;;;;;;;4.75;3.30;;;;;;;9.32;100.00;95955.72;5027364;28;24454;-68
2022/10/23 00:22:59;;;;;;;4.38;2.60;;;;;;;9.40;100.00;95956.97;5024206;28;24455;-68
2022/10/23 00:25:25;;;;;;;5.38;2.65;;;;;;;9.50;100.00;95952.13;5021623;28;24494;-68
2022/10/23 00:27:51;;;;;;;5.22;2.90;;;;;;;9.52;100.00;95946.84;5022789;28;24467;-68
2022/10/23 00:30:18;;;;;;;7.28;3.00;;;;;;;9.55;100.00;95946.69;5022406;28;24450;-69
2022/10/23 00:32:45;;;;;;;7.07;3.25;;;;;;;9.48;100.00;95940.19;5032761;28;24450;-69
2022/10/23 00:35:11;;;;;;;5.30;2.50;;;;;;;9.46;100.00;95942.88;5025578;28;24475;-69
2022/10/23 00:37:39;;;;;;;3.20;2.45;;;;;;;9.41;100.00;95935.34;5026617;28;24462;-69
2022/10/23 00:40:07;;;;;;;2.25;1.88;;;;;;;9.50;100.00;95921.09;5024416;28;24451;-69
2022/10/23 00:42:33;;;;;;;4.43;2.40;;;;;;;9.58;100.00;95921.50;5030127;28;24479;-69
2022/10/23 00:45:20;;;;;;;2.38;1.83;;;;;;;9.57;100.00;95922.41;5028456;28;24455;-69
2022/10/23 00:47:47;;;;;;;3.67;2.38;;;;;;;9.52;100.00;95908.06;5031377;28;20695;-70
2022/10/23 00:50:15;;;;;;;4.68;2.63;;;;;;;9.48;100.00;95915.16;5024117;28;24540;-69
2022/10/23 00:52:47;;;;;;;5.18;2.40;;;;;;;9.43;100.00;95917.19;5023076;28;24490;-70
2022/10/23 00:55:16;;;;;;;4.22;2.30;;;;;;;9.39;100.00;95919.09;5029100;28;20693;-68
2022/10/23 00:57:45;;;;;;;3.40;1.95;;;;;;;9.44;100.00;95919.69;5029323;28;20840;-70
2022/10/23 01:00:16;;;;;;;4.60;1.85;;;;;;;9.34;100.00;95923.69;5026249;28;24429;-70
2022/10/23 01:02:42;;;;;;;4.30;1.63;;;;;;;9.34;100.00;95922.84;5022529;28;20776;-69
2022/10/23 01:05:09;;;;;;;3.17;1.52;;;;;;;9.38;100.00;95925.22;5016419;28;24471;-69
2022/10/23 01:07:43;;;;;;;2.90;1.90;;;;;;;9.36;100.00;95927.03;5023141;28;20884;-68
2022/10/23 01:10:18;;;;;;;4.13;1.70;;;;;;;9.43;100.00;95920.59;5027829;28;24458;-70
2022/10/23 01:12:50;;;;;;;5.10;1.77;;;;;;;9.43;100.00;95917.19;5026341;28;20725;-70
2022/10/23 01:15:23;;;;;;;3.20;2.00;;;;;;;9.39;100.00;95908.78;5015688;28;24440;-70
2022/10/23 01:17:55;;;;;;;3.17;1.90;;;;;;;9.38;100.00;95909.69;5027538;28;20995;-70
2022/10/23 01:20:37;;;;;;;11.30;1.70;;;;;;;9.42;100.00;95906.03;5025440;28;24455;-70
2022/10/23 01:23:42;;;;;;;12.55;1.45;;;;;;;9.28;100.00;95911.13;5021509;28;20709;-70
2022/10/23 01:26:21;;;;;;;5.45;1.85;;;;;;;9.19;100.00;95907.28;5026034;28;20670;-70
2022/10/23 01:28:53;;;;;;;2.22;1.52;;;;;;;9.19;100.00;95907.28;5020023;28;24471;-70
2022/10/23 01:31:27;;;;;;;2.58;1.80;;;;;;;9.13;100.00;95899.03;5017991;28;24440;-70
2022/10/23 01:34:00;;;;;;;4.32;1.95;;;;;;;9.05;100.00;95898.59;5024062;28;24447;-70
2022/10/23 01:36:29;;;;;;;2.30;1.75;;;;;;;9.11;100.00;95896.53;5028398;28;20782;-70
2022/10/23 01:38:59;;;;;;;2.72;2.10;;;;;;;9.09;100.00;95895.78;5028637;28;20792;-70
2022/10/23 01:41:31;;;;;;;5.20;2.38;;;;;;;9.14;100.00;95896.38;5019690;28;24454;-70
2022/10/23 01:44:04;;;;;;;2.77;2.07;;;;;;;9.13;100.00;95888.72;5027968;28;20711;-70
2022/10/23 01:46:34;;;;;;;3.42;2.20;;;;;;;9.13;100.00;95880.97;5026995;28;21317;-69
2022/10/23 01:49:03;;;;;;;4.15;1.77;;;;;;;9.14;100.00;95887.78;5031155;28;21335;-69
2022/10/23 01:51:31;;;;;;;2.83;1.60;;;;;;;9.11;100.00;95890.53;5025471;28;20826;-69
2022/10/23 01:54:00;;;;;;;2.40;1.75;;;;;;;9.09;100.00;95889.81;5026247;28;25019;-69
2022/10/23 01:56:31;;;;;;;3.10;1.92;;;;;;;9.16;100.00;95883.38;5015475;28;21375;-69
2022/10/23 01:59:01;;;;;;;2.28;1.35;;;;;;;9.13;100.00;95876.63;5027694;28;20784;-69
2022/10/23 02:01:30;;;;;;;2.70;1.60;;;;;;;9.01;100.00;95869.56;5024351;28;24455;-69
2022/10/23 02:03:59;;;;;;;2.10;1.40;;;;;;;8.98;100.00;95868.88;5029431;28;20830;-69
2022/10/23 02:06:26;;;;;;;3.42;1.70;;;;;;;8.96;100.00;95877.53;5021660;28;24452;-69
2022/10/23 02:08:52;;;;;;;1.60;1.45;;;;;;;8.87;100.00;95874.63;5030724;28;24450;-69
2022/10/23 02:11:20;;;;;;;2.50;1.33;;;;;;;8.93;100.00;95862.19;5021954;28;24435;-69
2022/10/23 02:13:55;;;;;;;2.50;1.45;;;;;;;9.02;100.00;95866.03;5026184;28;20827;-69
2022/10/23 02:16:31;;;;;;;4.25;1.65;;;;;;;9.03;100.00;95856.53;5025114;28;21226;-69
2022/10/23 02:19:10;;;;;;;3.20;1.60;;;;;;;9.03;100.00;95851.38;5029027;28;24444;-69
2022/10/23 02:21:48;;;;;;;3.17;1.65;;;;;;;9.08;100.00;95844.19;5029553;28;20819;-69
2022/10/23 02:24:19;;;;;;;3.70;1.50;;;;;;;9.03;100.00;95853.97;5029356;28;21158;-69
2022/10/23 02:26:51;;;;;;;2.50;1.30;;;;;;;9.02;100.00;95857.47;5022674;28;20691;-69
2022/10/23 02:29:21;;;;;;;3.00;1.60;;;;;;;9.01;100.00;95848.03;5024916;28;20831;-69
2022/10/23 02:31:50;;;;;;;2.92;1.85;;;;;;;9.06;100.00;95840.88;5022662;28;24447;-69
2022/10/23 02:34:16;;;;;;;3.10;1.90;;;;;;;9.12;100.00;95833.63;5028903;28;20826;-69
2022/10/23 02:36:43;;;;;;;4.85;2.00;;;;;;;9.13;100.00;95837.88;5021481;28;24454;-69
2022/10/23 02:39:10;;;;;;;2.50;1.92;;;;;;;9.10;100.00;95817.34;5025404;28;24459;-69
2022/10/23 02:41:43;;;;;;;1.95;1.75;;;;;;;9.17;100.00;95828.19;5025194;28;24451;-69
2022/10/23 02:44:21;;;;;;;1.88;1.65;;;;;;;9.05;100.00;95829.72;5025574;28;20672;-69
2022/10/23 02:46:56;;;;;;;1.90;1.70;;;;;;;9.05;100.00;95819.38;5028165;28;21221;-69
2022/10/23 02:49:29;;;;;;;3.45;1.90;;;;;;;8.93;100.00;95815.69;5029419;28;20722;-69
2022/10/23 02:52:06;;;;;;;6.60;1.88;;;;;;;8.86;100.00;95819.56;5024555;28;20675;-69
2022/10/23 02:54:49;;;;;;;5.90;1.88;;;;;;;8.90;100.00;95823.66;5026867;28;24451;-69
2022/10/23 02:57:23;;;;;;;7.53;1.60;;;;;;;8.82;100.00;95825.78;5023350;28;24451;-69
2022/10/23 02:59:57;;;;;;;3.28;2.00;;;;;;;8.76;100.00;95823.56;5023529;28;20790;-69
2022/10/23 03:02:30;;;;;;;4.63;2.40;;;;;;;8.80;100.00;95821.66;5022023;28;20792;-69
2022/10/23 03:04:58;;;;;;;2.63;1.75;;;;;;;8.90;100.00;95808.16;5014832;28;20762;-69
2022/10/23 03:07:26;;;;;;;4.45;1.95;;;;;;;8.96;100.00;95818.13;5020392;28;21368;-69
2022/10/23 03:09:52;;;;;;;2.33;1.90;;;;;;;9.00;100.00;95815.38;5024384;28;20801;-69
2022/10/23 03:12:19;;;;;;;5.25;2.30;;;;;;;8.97;100.00;95808.63;5025624;28;20798;-69
2022/10/23 03:14:45;;;;;;;1.92;1.17;;;;;;;8.73;100.00;95805.66;5025460;28;24455;-69
2022/10/23 03:17:12;;;;;;;3.00;1.25;;;;;;;8.71;100.00;95816.09;5027758;28;24448;-69
2022/10/23 03:19:40;;;;;;;5.13;2.38;;;;;;;8.84;100.00;95802.50;5025925;28;24978;-69
2022/10/23 03:22:06;;;;;;;7.00;4.60;;;;;;;8.86;100.00;95800.63;5026665;28;20823;-69
2022/10/23 03:24:33;;;;;;;5.53;4.55;;;;;;;8.89;100.00;95803.06;5024612;28;21366;-69
2022/10/23 03:26:59;;;;;;;6.03;4.40;;;;;;;8.92;100.00;95800.31;5025007;28;20803;-69
2022/10/23 03:29:26;;;;;;;4.85;2.53;;;;;;;8.96;100.00;95791.47;5027431;28;24451;-69
2022/10/23 03:31:54;;;;;;;2.53;2.05;;;;;;;8.98;100.00;95802.56;5026388;28;24479;-69
2022/10/23 03:34:20;;;;;;;3.30;1.83;;;;;;;8.95;100.00;95800.97;5020888;28;20829;-69
2022/10/23 03:36:48;;;;;;;2.88;1.73;;;;;;;9.01;100.00;95801.53;5020668;28;24443;-69
2022/10/23 03:39:16;;;;;;;4.45;2.40;;;;;;;9.02;100.00;95798.06;5027852;28;20797;-69
2022/10/23 03:41:43;;;;;;;3.40;1.98;;;;;;;8.99;100.00;95796.47;5022566;28;24448;-69
2022/10/23 03:44:09;;;;;;;3.10;2.00;;;;;;;8.86;100.00;95793.75;5024035;28;20792;-69
2022/10/23 03:46:36;;;;;;;4.68;1.90;;;;;;;8.74;100.00;95799.56;5023017;28;24451;-69
2022/10/23 03:49:02;;;;;;;2.72;1.77;;;;;;;8.75;100.00;95801.25;5018964;28;24435;-69
2022/10/23 03:51:29;;;;;;;1.70;1.42;;;;;;;8.78;100.00;95797.66;5026360;28;20820;-69
2022/10/23 03:53:57;;;;;;;2.67;1.50;;;;;;;8.78;100.00;95803.66;5028198;28;24450;-69
2022/10/23 03:56:23;;;;;;;5.17;1.40;;;;;;;8.67;100.00;95804.22;5026396;28;20792;-69
2022/10/23 03:58:50;;;;;;;3.13;1.58;;;;;;;8.72;100.00;95799.66;5025038;28;20804;-68
2022/10/23 04:01:16;;;;;;;3.58;1.73;;;;;;;8.65;100.00;95798.34;5023309;28;20784;-68
2022/10/23 04:03:43;;;;;;;4.32;1.20;;;;;;;8.69;100.00;95797.25;5023859;28;20788;-68
2022/10/23 04:06:09;;;;;;;2.60;1.30;;;;;;;8.72;100.00;95801.41;5028297;28;24467;-68
2022/10/23 04:08:36;;;;;;;2.27;1.40;;;;;;;8.76;100.00;95802.09;5016038;28;21157;-68
2022/10/23 04:11:04;;;;;;;1.70;1.20;;;;;;;8.84;100.00;95792.97;5026154;28;24450;-68
2022/10/23 04:13:30;;;;;;;2.60;1.20;;;;;;;8.69;100.00;95806.75;5027522;28;24471;-68
2022/10/23 04:15:57;;;;;;;5.22;1.30;;;;;;;8.64;100.00;95801.84;5027219;28;24443;-68
2022/10/23 04:18:23;;;;;;;3.78;1.55;;;;;;;8.75;100.00;95793.50;5022552;28;25234;-68
2022/10/23 04:20:51;;;;;;;2.38;1.60;;;;;;;8.52;100.00;95799.91;5022363;28;24528;-68
2022/10/23 04:23:18;;;;;;;3.33;1.63;;;;;;;8.53;100.00;95796.44;5019762;28;20808;-68
2022/10/23 04:25:44;;;;;;;3.33;2.20;;;;;;;8.61;100.00;95799.41;5027426;28;24454;-68
2022/10/23 04:28:12;;;;;;;2.63;1.52;;;;;;;8.62;100.00;95798.50;5024404;28;25011;-68
2022/10/23 04:30:39;;;;;;;8.73;1.98;;;;;;;8.69;100.00;95791.25;5021839;28;20836;-69
2022/10/23 04:33:06;;;;;;;4.00;2.10;;;;;;;8.68;100.00;95790.41;5022615;28;20786;-69
2022/10/23 04:35:33;;;;;;;4.65;2.30;;;;;;;8.61;100.00;95793.44;5027165;28;24563;-69
2022/10/23 04:37:59;;;;;;;6.78;3.33;;;;;;;8.68;100.00;95802.50;5024845;28;20793;-69
2022/10/23 04:40:26;;;;;;;12.48;5.07;;;;;;;8.73;100.00;95787.59;5022942;28;20797;-70
2022/10/23 04:42:52;;;;;;;20.58;9.60;;;;;;;8.81;100.00;95806.06;5018394;28;24450;-69
2022/10/23 04:45:20;;;;;;;17.60;7.68;;;;;;;8.83;100.00;95793.09;5025206;28;21346;-69
2022/10/23 04:47:47;;;;;;;5.38;3.05;;;;;;;8.82;100.00;95793.97;5020908;28;20823;-69
2022/10/23 04:50:13;;;;;;;3.30;2.20;;;;;;;8.77;100.00;95794.25;5024653;28;20795;-70
2022/10/23 04:52:39;;;;;;;5.82;1.50;;;;;;;8.81;100.00;95787.16;5023915;28;24447;-69
2022/10/23 04:55:08;;;;;;;2.72;1.85;;;;;;;8.82;100.00;95783.66;5026502;28;20773;-69
2022/10/23 04:57:34;;;;;;;6.05;2.22;;;;;;;8.86;100.00;95783.41;5024012;28;20841;-69
2022/10/23 05:00:01;;;;;;;1.80;1.60;;;;;;;8.91;100.00;95789.16;5027585;28;24482;-69
2022/10/23 05:02:29;;;;;;;4.50;1.90;;;;;;;8.93;100.00;95789.03;5018835;28;24444;-69
2022/10/23 05:04:55;;;;;;;2.95;1.67;;;;;;;8.85;100.00;95781.72;5027550;28;20818;-69
2022/10/23 05:07:22;;;;;;;3.25;1.77;;;;;;;8.66;100.00;95779.34;5018158;28;24462;-69
2022/10/23 05:09:48;;;;;;;3.45;1.67;;;;;;;8.69;100.00;95788.66;5027312;28;21151;-69
2022/10/23 05:12:15;;;;;;;1.33;1.20;;;;;;;8.72;100.00;95778.19;5026418;28;24460;-69
2022/10/23 05:14:41;;;;;;;2.88;1.60;;;;;;;8.77;100.00;95778.75;5027187;28;24444;-69
2022/10/23 05:17:13;;;;;;;3.83;1.67;;;;;;;8.73;100.00;95778.09;5029154;28;24475;-69
2022/10/23 05:19:44;;;;;;;4.93;1.45;;;;;;;8.72;100.00;95768.69;5024790;28;20757;-69
2022/10/23 05:22:12;;;;;;;3.50;2.28;;;;;;;8.59;100.00;95770.25;5029675;28;20772;-69
2022/10/23 05:24:38;;;;;;;2.92;2.50;;;;;;;8.49;100.00;95774.25;5020440;28;24792;-69
2022/10/23 05:27:05;;;;;;;3.67;2.67;;;;;;;8.40;100.00;95775.59;5020886;28;24813;-69
2022/10/23 05:29:31;;;;;;;3.30;1.95;;;;;;;8.36;100.00;95771.47;5032108;28;24435;-69
2022/10/23 05:32:02;;;;;;;1.92;1.50;;;;;;;8.49;100.00;95761.34;5024523;28;24818;-69
2022/10/23 05:34:33;;;;;;;5.35;4.13;;;;;;;8.60;100.00;95763.34;5030703;28;20693;-69
2022/10/23 05:37:01;;;;;;;5.03;2.65;;;;;;;8.63;100.00;95765.75;5025869;28;21265;-69
2022/10/23 05:39:28;;;;;;;3.75;1.90;;;;;;;8.68;100.00;95763.78;5031235;28;20791;-69
2022/10/23 05:41:55;;;;;;;3.78;1.60;;;;;;;8.73;100.00;95762.59;5029285;28;24431;-70
2022/10/23 05:44:21;;;;;;;2.85;1.75;;;;;;;8.72;100.00;95750.59;5022819;28;20784;-69
2022/10/23 05:46:48;;;;;;;2.17;1.52;;;;;;;8.70;100.00;95751.59;5023908;28;20778;-69
2022/10/23 05:49:14;;;;;;;2.93;2.10;;;;;;;8.70;100.00;95751.59;5027196;28;20835;-69
2022/10/23 05:51:41;;;;;;;2.00;1.80;;;;;;;8.65;100.00;95756.19;5025516;28;24439;-69
2022/10/23 05:54:09;;;;;;;4.50;3.00;;;;;;;8.63;100.00;95755.44;5023742;28;20777;-69
2022/10/23 05:56:37;;;;;;;2.78;1.73;;;;;;;8.55;100.00;95747.28;5023179;28;21359;-69
2022/10/23 05:59:04;;;;;;;1.80;1.70;;;;;;;8.65;100.00;95745.88;5030991;28;20807;-69
2022/10/23 06:01:31;;;;;;;1.85;1.60;;;;;;;8.65;100.00;95744.13;5024988;28;20780;-69
2022/10/23 06:03:58;;;;;;;1.75;1.15;;;;;;;8.65;100.00;95738.13;5020734;28;24438;-70
2022/10/23 06:06:25;;;;;;;2.88;1.10;;;;;;;8.71;100.00;95742.94;5027293;28;21397;-69
2022/10/23 06:08:51;;;;;;;1.13;0.90;;;;;;;8.73;100.00;95746.28;5030370;28;24432;-69
2022/10/23 06:11:19;;;;;;;1.65;0.90;;;;;;;8.76;100.00;95748.69;5025445;28;24446;-70
2022/10/23 06:13:47;;;;;;;4.60;0.80;;;;;;;8.82;100.00;95745.75;5021371;28;24559;-71
2022/10/23 06:16:15;;;;;;;1.38;1.00;;;;;;;8.83;100.00;95744.84;5030396;28;24447;-70
2022/10/23 06:18:42;;;;;;;1.52;1.15;;;;;;;8.86;100.00;95751.56;5030224;28;24462;-70
2022/10/23 06:21:09;;;;;;;1.60;1.10;;;;;;;8.73;100.00;95752.25;5019379;28;24510;-72
2022/10/23 06:23:38;;;;;;;1.23;0.80;;;;;;;8.76;100.00;95747.84;5029799;28;24518;-71
2022/10/23 06:26:05;;;;;;;1.35;0.88;;;;;;;8.73;100.00;95748.84;5028755;28;24452;-71
2022/10/23 06:28:34;;;;;;;1.23;0.90;;;;;;;8.81;100.00;95745.84;5019064;28;24452;-70
2022/10/23 06:31:04;;;;;;;1.85;0.82;;;;;;;8.92;100.00;95752.06;5029694;28;24802;-71
2022/10/23 06:33:31;;;;;;;6.55;1.08;;;;;;;8.94;100.00;95754.56;5025699;28;20780;-71
2022/10/23 06:35:57;;;;;;;5.35;0.88;;;;;;;8.95;100.00;95754.47;5026472;28;24455;-70
2022/10/23 06:38:24;;;;;;;1.90;0.90;;;;;;;8.82;100.00;95750.06;5027748;28;25087;-70
2022/10/23 06:40:54;;;;;;;1.37;0.83;;;;;;;8.81;100.00;95738.09;5025238;28;25008;-71
2022/10/23 06:43:20;;;;;;;4.60;1.10;;;;;;;8.85;100.00;95737.00;5018575;28;24437;-70
2022/10/23 06:45:49;;;;;;;2.35;0.90;;;;;;;8.93;100.00;95745.13;5025516;28;24447;-69
2022/10/23 06:48:16;;;;;;;1.30;0.90;;;;;;;8.92;100.00;95736.56;5025888;28;24447;-69
2022/10/23 06:50:42;;;;;;;3.42;1.00;;;;;;;8.99;100.00;95739.63;5027289;28;24454;-70
2022/10/23 06:53:09;;;;;;;1.48;1.02;;;;;;;8.89;100.00;95744.47;5018331;28;24810;-69
2022/10/23 06:55:35;;;;;;;2.65;1.10;;;;;;;9.07;100.00;95745.19;5019069;28;24443;-69
2022/10/23 06:58:02;;;;;;;4.68;1.35;;;;;;;9.05;100.00;95744.47;5021758;28;24885;-69
2022/10/23 07:00:28;;;;;;;4.00;3.40;;;;;;;9.15;100.00;95750.75;5024343;28;24453;-70
2022/10/23 07:02:56;;;;;;;3.10;1.40;;;;;;;9.31;100.00;95750.72;5023697;28;24439;-70
2022/10/23 07:05:23;;;;;;;4.00;2.83;;;;;;;9.29;100.00;95749.94;5026104;28;24439;-70
2022/10/23 07:07:49;;;;;;;3.95;2.33;;;;;;;9.30;100.00;95748.19;5014254;28;24782;-69
2022/10/23 07:10:16;;;;;;;3.13;1.92;;;;;;;9.40;100.00;95742.41;5019313;28;24451;-69
2022/10/23 07:12:42;;;;;;;6.45;4.22;;;;;;;9.25;100.00;95738.13;5021862;28;24996;-69
2022/10/23 07:15:09;;;;;;;3.78;1.65;;;;;;;9.26;100.00;95742.38;5022896;28;20885;-69
2022/10/23 07:17:36;;;;;;;1.52;1.00;;;;;;;9.36;100.00;95743.50;5029941;28;24464;-69
2022/10/23 07:20:04;;;;;;;1.90;1.70;;;;;;;9.52;100.00;95748.59;5026632;28;24459;-69
2022/10/23 07:22:31;;;;;;;5.65;3.90;;;;;;;9.49;100.00;95756.53;5019544;28;24447;-69
2022/10/23 07:24:57;;;;;;;5.70;3.67;;;;;;;9.50;100.00;95747.88;5021353;28;24472;-70
2022/10/23 07:27:24;;;;;;;6.78;1.20;;;;;;;9.48;100.00;95749.72;5017204;28;24452;-69
2022/10/23 07:29:51;;;;;;;1.90;1.00;;;;;;;9.50;100.00;95744.47;5026473;28;25001;-70
2022/10/23 07:32:18;;;;;;;2.38;1.23;;;;;;;9.61;100.00;95745.50;5027629;28;24455;-69
2022/10/23 07:34:45;;;;;;;2.00;1.13;;;;;;;9.77;100.00;95748.00;5017490;28;25004;-69
2022/10/23 07:37:13;;;;;;;2.10;0.90;;;;;;;9.80;100.00;95752.97;5026138;28;24444;-70
2022/10/23 07:39:39;;;;;;;3.17;1.30;;;;;;;9.76;100.00;95751.50;5022515;28;24452;-71
2022/10/23 07:42:06;;;;;;;1.53;0.97;;;;;;;9.93;100.00;95750.47;5022130;28;24436;-69
2022/10/23 07:44:32;;;;;;;2.67;1.10;;;;;;;10.02;100.00;95752.53;5025546;28;24534;-71
2022/10/23 07:46:59;;;;;;;2.13;1.17;;;;;;;10.16;100.00;95744.75;5025091;28;24447;-71
2022/10/23 07:49:25;;;;;;;1.92;1.30;;;;;;;10.34;100.00;95745.38;5022719;28;24438;-71
2022/10/23 07:51:52;;;;;;;3.35;1.17;;;;;;;10.62;100.00;95743.66;5023260;28;25040;-69
2022/10/23 07:54:20;;;;;;;3.23;1.00;;;;;;;10.86;100.00;95744.69;5015514;28;24545;-71
2022/10/23 07:56:47;;;;;;;1.48;0.98;;;;;;;11.11;100.00;95740.50;5027493;28;24818;-71
2022/10/23 07:59:13;;;;;;;4.50;1.00;;;;;;;11.31;100.00;95736.59;5019977;28;24468;-71
2022/10/23 08:01:44;;;;;;;3.30;0.80;;;;;;;11.52;100.00;95736.94;5018231;28;24436;-70
2022/10/23 08:04:10;;;;;;;2.83;1.10;;;;;;;11.80;100.00;95733.31;5019961;28;24550;-68
2022/10/23 08:06:37;;;;;;;2.20;1.10;;;;;;;12.06;100.00;95734.16;5027197;28;24440;-71
2022/10/23 08:09:04;;;;;;;2.27;1.13;;;;;;;12.37;100.00;95724.22;5028009;28;24447;-71
2022/10/23 08:11:34;;;;;;;2.40;1.43;;;;;;;12.43;100.00;95729.81;5027944;28;24444;-71
2022/10/23 08:14:03;;;;;;;2.45;1.20;;;;;;;12.29;100.00;95728.19;5025862;28;24528;-71
2022/10/23 08:16:30;;;;;;;3.38;2.00;;;;;;;12.24;100.00;95727.69;5027099;28;24436;-69
2022/10/23 08:18:57;;;;;;;2.42;1.73;;;;;;;12.29;100.00;95716.97;5019792;28;25098;-70
2022/10/23 08:21:24;;;;;;;2.90;1.40;;;;;;;12.41;100.00;95720.47;5022601;28;24446;-70
2022/10/23 08:23:54;;;;;;;2.63;1.30;;;;;;;12.53;100.00;95714.38;5021330;28;24439;-70
2022/10/23 08:26:20;;;;;;;3.00;1.30;;;;;;;12.61;100.00;95722.47;5022308;28;24502;-70
2022/10/23 08:28:48;;;;;;;2.03;1.30;;;;;;;12.57;100.00;95716.69;5025809;28;24435;-70
2022/10/23 08:31:18;;;;;;;1.60;1.45;;;;;;;12.59;100.00;95713.94;5028298;28;24428;-70
2022/10/23 08:33:44;;;;;;;1.50;1.20;;;;;;;12.53;100.00;95724.78;5026888;28;24444;-71
2022/10/23 08:36:17;;;;;;;2.28;1.40;;;;;;;12.56;100.00;95715.00;5027014;28;24470;-71
2022/10/23 08:38:44;;;;;;;3.15;1.58;;;;;;;12.88;100.00;95724.03;5020683;28;25097;-71
2022/10/23 08:41:23;;;;;;;4.50;1.50;;;;;;;13.08;100.00;95718.19;5028605;28;24447;-71
2022/10/23 08:43:56;;;;;;;1.90;1.60;;;;;;;13.29;100.00;95708.00;5021859;28;24997;-71
2022/10/23 08:46:28;;;;;;;2.33;1.67;;;;;;;13.62;100.00;95706.44;5018234;28;24443;-71
2022/10/23 08:49:01;;;;;;;2.03;1.73;;;;;;;14.02;100.00;95709.41;5022556;28;24791;-71
2022/10/23 08:51:34;;;;;;;4.75;1.70;;;;;;;13.94;100.00;95714.34;5028903;28;24458;-71
2022/10/23 08:54:06;;;;;;;2.40;1.30;;;;;;;13.95;100.00;95716.84;5032032;28;24439;-71
2022/10/23 08:56:35;;;;;;;1.38;1.17;;;;;;;14.40;100.00;95705.59;5021923;28;24432;-71
2022/10/23 08:59:13;;;;;;;1.80;1.40;;;;;;;14.55;100.00;95717.41;5027400;28;24546;-71
2022/10/23 09:01:44;;;;;;;1.20;1.02;;;;;;;14.67;100.00;95715.63;5030104;28;24440;-71
2022/10/23 09:04:13;;;;;;;6.72;1.30;;;;;;;14.54;100.00;95717.56;5031053;28;24869;-71
2022/10/23 09:06:45;;;;;;;1.80;1.10;;;;;;;14.55;100.00;95708.78;5025079;28;25036;-69
2022/10/23 09:09:41;;;;;;;3.08;1.40;;;;;;;14.60;100.00;95711.84;5030270;28;24515;-69
2022/10/23 09:12:12;;;;;;;2.20;1.00;;;;;;;14.86;100.00;95707.13;5021225;28;24439;-69
2022/10/23 09:14:54;;;;;;;3.13;1.40;;;;;;;15.06;100.00;95706.38;5025544;28;24491;-70
2022/10/23 09:17:26;;;;;;;1.70;1.10;;;;;;;15.15;100.00;95694.34;5029053;28;24446;-70
2022/10/23 09:20:00;;;;;;;2.53;1.17;;;;;;;15.51;100.00;95692.25;5025430;28;25032;-71
2022/10/23 09:22:28;;;;;;;3.07;1.63;;;;;;;15.87;100.00;95688.31;5025707;28;24508;-72
2022/10/23 09:24:55;;;;;;;4.22;1.27;;;;;;;16.10;100.00;95691.59;5028902;28;24431;-71
2022/10/23 09:27:21;;;;;;;2.47;1.05;;;;;;;16.16;100.00;95689.28;5026316;28;24450;-71
2022/10/23 09:29:51;;;;;;;3.40;1.00;;;;;;;16.19;100.00;95696.03;5015305;28;24451;-71
2022/10/23 09:32:19;;;;;;;4.70;0.90;;;;;;;16.21;100.00;95692.34;5024999;28;24443;-71
2022/10/23 09:34:54;;;;;;;0.70;0.60;;;;;;;16.45;100.00;95683.31;5029912;28;24431;-71
2022/10/23 09:37:23;;;;;;;1.05;0.70;;;;;;;16.56;100.00;95677.97;5022939;28;24436;-71
2022/10/23 09:40:02;;;;;;;2.60;0.52;;;;;;;16.77;100.00;95666.59;5020391;28;24459;-71
2022/10/23 09:42:28;;;;;;;1.50;0.90;;;;;;;17.12;100.00;95659.00;5022192;28;24498;-71
2022/10/23 09:44:56;;;;;;;2.00;0.70;;;;;;;17.30;100.00;95660.94;5030755;28;24960;-71
2022/10/23 09:47:25;;;;;;;0.98;0.60;;;;;;;17.49;100.00;95666.13;5027639;28;24478;-71
2022/10/23 09:49:53;;;;;;;1.17;0.63;;;;;;;17.49;100.00;95670.53;5030829;28;24432;-71
2022/10/23 09:52:24;;;;;;;1.03;0.80;;;;;;;17.42;100.00;95683.38;5031021;28;24543;-71
2022/10/23 09:54:54;;;;;;;2.50;0.90;;;;;;;17.38;100.00;95684.63;5024478;28;24450;-71
2022/10/23 09:57:24;;;;;;;1.55;0.70;;;;;;;17.50;100.00;95683.50;5030107;28;24446;-72
2022/10/23 09:59:52;;;;;;;1.95;0.90;;;;;;;17.45;100.00;95688.31;5029317;28;26219;-72
2022/10/23 10:02:28;;;;;;;1.88;0.70;;;;;;;17.38;100.00;95684.63;5023063;28;25026;-71
2022/10/23 10:04:55;;;;;;;2.00;0.85;;;;;;;17.51;100.00;95684.34;5024712;28;24439;-71
2022/10/23 10:07:24;;;;;;;5.25;0.70;;;;;;;17.39;100.00;95681.03;5027489;28;24495;-71
2022/10/23 10:09:52;;;;;;;0.93;0.70;;;;;;;17.47;100.00;95686.41;5028747;28;24424;-71
2022/10/23 10:12:42;;;;;;;0.75;0.60;;;;;;;17.76;97.54;95685.53;5027588;28;24443;-71
2022/10/23 10:15:22;;;;;;;1.02;0.60;;;;;;;17.65;99.92;95681.28;5027312;28;24523;-71
2022/10/23 10:18:02;;;;;;;1.77;0.80;;;;;;;17.83;99.13;95670.88;5021795;28;24444;-71
2022/10/23 10:20:54;;;;;;;1.50;0.60;;;;;;;17.80;99.57;95669.41;5023349;28;25070;-71
2022/10/23 10:23:28;;;;;;;3.13;0.80;;;;;;;18.04;98.51;95668.88;5025392;28;25041;-71
2022/10/23 10:26:03;;;;;;;1.90;0.65;;;;;;;18.14;92.35;95664.44;5028982;28;24515;-71
2022/10/23 10:28:48;;;;;;;1.57;0.60;;;;;;;18.09;92.47;95650.91;5018891;28;24459;-71
2022/10/23 10:31:23;;;;;;;2.78;0.88;;;;;;;18.07;91.99;95638.94;5022770;28;24447;-71
2022/10/23 10:33:58;;;;;;;1.60;0.60;;;;;;;17.90;95.16;95649.22;5026331;28;24447;-71
2022/10/23 10:36:39;;;;;;;1.70;1.23;;;;;;;17.88;98.10;95648.53;5025288;28;24447;-71
2022/10/23 10:39:18;;;;;;;1.30;1.10;;;;;;;17.86;97.44;95652.25;5026711;28;24810;-71
2022/10/23 10:41:55;;;;;;;1.15;0.60;;;;;;;17.61;100.00;95662.41;5024394;28;24470;-71
2022/10/23 10:44:38;;;;;;;0.90;0.68;;;;;;;17.36;100.00;95657.75;5024801;28;24463;-71
2022/10/23 10:47:13;;;;;;;1.67;0.70;;;;;;;17.23;100.00;95657.22;5018833;28;24447;-72
2022/10/23 10:49:48;;;;;;;1.27;0.70;;;;;;;17.13;100.00;95665.91;5020770;28;24448;-70
2022/10/23 10:52:23;;;;;;;1.15;0.60;;;;;;;17.06;100.00;95664.81;5022018;28;24432;-71
2022/10/23 10:55:00;;;;;;;0.88;0.60;;;;;;;17.06;100.00;95653.53;5025954;28;24441;-72
2022/10/23 10:57:31;;;;;;;2.28;0.95;;;;;;;16.95;100.00;95641.41;5028365;28;24790;-72
2022/10/23 11:00:03;;;;;;;4.38;0.88;;;;;;;16.91;100.00;95640.06;5028990;28;24459;-71
2022/10/23 11:02:37;;;;;;;1.42;0.60;;;;;;;16.88;100.00;95629.84;5024821;28;24455;-72
2022/10/23 11:05:16;;;;;;;1.52;0.70;;;;;;;16.85;100.00;95625.72;5017167;28;25001;-72
2022/10/23 11:07:54;;;;;;;2.70;0.65;;;;;;;16.82;100.00;95619.94;5025468;28;24806;-72
2022/10/23 11:10:21;;;;;;;4.03;0.60;;;;;;;16.83;100.00;95621.56;5026083;28;24443;-72
2022/10/23 11:12:48;;;;;;;1.55;0.60;;;;;;;16.84;100.00;95613.63;5020184;28;24440;-72
2022/10/23 11:15:17;;;;;;;2.22;0.90;;;;;;;16.92;100.00;95610.31;5022293;28;24450;-72
2022/10/23 11:17:47;;;;;;;2.80;0.90;;;;;;;16.91;100.00;95606.03;5029492;28;24443;-72
2022/10/23 11:20:32;;;;;;;1.23;0.63;;;;;;;16.99;100.00;95608.78;5028981;28;24451;-71
2022/10/23 11:23:08;;;;;;;2.47;0.75;;;;;;;17.00;100.00;95602.56;5021468;28;24454;-72
2022/10/23 11:25:56;;;;;;;2.63;0.70;;;;;;;17.14;100.00;95602.16;5025011;28;25076;-70
2022/10/23 11:28:46;;;;;;;1.13;0.70;;;;;;;17.16;100.00;95600.19;5021690;28;24997;-70
2022/10/23 11:31:21;;;;;;;2.33;0.88;;;;;;;17.21;100.00;95596.34;5027546;28;24440;-71
2022/10/23 11:34:38;;;;;;;2.78;1.08;;;;;;;17.25;100.00;95595.94;5024762;28;24455;-72
2022/10/23 11:37:07;;;;;;;1.40;0.73;;;;;;;17.29;100.00;95588.63;5024148;28;24440;-72
2022/10/23 11:39:36;;;;;;;2.40;0.75;;;;;;;17.31;100.00;95584.06;5026959;28;24973;-72
2022/10/23 11:42:14;;;;;;;3.10;0.98;;;;;;;17.41;100.00;95585.69;5021064;28;24448;-72
2022/10/23 11:44:44;;;;;;;1.77;0.67;;;;;;;17.41;100.00;95584.84;5014310;28;24461;-71